• Join FlightAware (Why Join?)
  • Login
  • US Flag 
09:43AM EDT


 

Airport Tracker/Info


-or-


 

Live Flight TrackerFlight Track Log ✈ RPA3496 ✈ 16-May-2014 ✈ KLGA - KPIT

Flight Track Log - Related Links

Times and Time Zones

All times are in EDT time to prevent confusion due to time zone crossing. See the RPA3496 flight status page for this flight to view local times or setup timezone preferences in your user account.

Time Position Orientation Groundspeed Altitude Reporting Facility
EDT Latitude Longitude Course Direction KTS MPH feet Rate Location/Type
07:19PM 40.7833 -73.7667 57° Northeast 286 329 4,100  Level New York TRACON
07:20PM 40.8667 -73.8500 323° Northwest 297 342 6,800 2,340 Climbing New York TRACON
07:21PM 40.7689 -74.3056 269° West  Level Estimated
07:21PM 40.8833 -73.9333 285° West 279 321 9,100  Level New York TRACON
07:22PM 40.7666 -74.4138 268° West  Level Estimated
07:22PM 40.8833 -74.0333 270° West 280 322 11,600  Level New York TRACON
07:23PM 40.7749 -74.5216 276° West  Level FlightAware Approximate
07:23PM 40.8833 -74.1333 270° West 282 325 14,200  Level New York TRACON
07:24PM 40.8667 -74.2333 258° West 287 330 15,100 600 Climbing New York TRACON
07:26PM 40.8603 -74.3928 267° West 290 334 15,700 720 Climbing New York Center
07:27PM 40.8531 -74.4856 264° West 290 334 17,000 600 Climbing New York Center
07:28PM 40.8431 -74.6058 264° West 295 339 17,000  Level New York Center
07:29PM 40.8375 -74.7097 266° West 317 365 17,000 300 Level New York Center
07:30PM 40.8064 -74.8339 252° West 322 371 17,700 780 Climbing New York Center
07:31PM 40.7753 -74.9444 250° West 322 371 18,600 780 Climbing New York Center
07:32PM 40.7464 -75.0522 251° West 322 371 19,300 900 Climbing New York Center
07:33PM 40.7153 -75.1625 250° West 322 371 20,400 1,260 Climbing New York Center
07:34PM 40.6861 -75.2756 251° West 328 377 21,900 1,320 Climbing New York Center
07:35PM 40.6544 -75.3939 251° West 333 383 23,200 1,320 Climbing New York Center
07:36PM 40.6228 -75.5094 250° West 338 389 24,500 1,200 Climbing New York Center
07:37PM 40.5886 -75.6328 250° West 350 403 25,600 1,080 Climbing New York Center
07:38PM 40.5519 -75.7614 249° West 361 415 26,700 1,140 Climbing New York Center
07:39PM 40.5150 -75.8925 250° West 371 427 27,900 600 Climbing New York Center
07:40PM 40.4786 -76.0125 248° West 390 449 28,000  Climbing New York Center
07:41PM 40.4389 -76.1539 250° West 400 460 28,000  Level New York Center
07:42PM 40.4014 -76.2900 250° West 400 460 28,000  Level New York Center
07:43PM 40.3589 -76.4367 249° West 400 460 28,000  Level New York Center
07:44PM 40.3175 -76.5611 246° West 394 453 28,000  Level New York Center
07:45PM 40.2717 -76.6881 245° Southwest 388 447 28,000  Level New York Center
07:46PM 40.2397 -76.8239 253° West 388 447 28,000  Level New York Center
07:47PM 40.2097 -76.9572 254° West 388 447 28,000  Level New York Center
07:48PM 40.1797 -77.0906 254° West 388 447 28,000  Level New York Center
07:49PM 40.1475 -77.2233 252° West 393 452 28,000  Level New York Center
07:50PM 40.1050 -77.4069 253° West 385 443 28,000 -600 Level Cleveland Center
07:51PM 40.0725 -77.5394 252° West 384 442 26,600 -1,680 Descending Cleveland Center
07:52PM 40.0417 -77.6678 253° West 375 432 24,600 -2,160 Descending Cleveland Center
07:53PM 40.0044 -77.8222 253° West 375 432 22,200 -1,320 Descending Cleveland Center
07:54PM 39.9783 -77.9544 256° West 375 432 22,000 -120 Descending Cleveland Center
07:55PM 39.9964 -78.1011 279° West 402 463 22,000  Level Cleveland Center
07:56PM 40.0136 -78.2431 279° West 401 461 22,000  Level Cleveland Center
07:57PM 40.0344 -78.3889 281° West 399 459 22,000 -780 Level Cleveland Center
07:58PM 40.0514 -78.5281 279° West 393 452 20,400 -1,800 Descending Cleveland Center
07:59PM 40.0672 -78.6633 279° West 382 440 18,400 -1,200 Descending Cleveland Center
08:00PM 40.0878 -78.8197 280° West 368 423 18,000 -240 Descending Cleveland Center
08:02PM 40.1042 -78.9506 279° West 368 423 18,000  Level Cleveland Center
08:03PM 40.1206 -79.0847 279° West 370 426 18,000 -300 Level Cleveland Center
08:04PM 40.1369 -79.2175 279° West 371 427 17,400 -1,320 Descending Cleveland Center
08:05PM 40.1536 -79.3575 279° West 364 419 15,300 -1,980 Descending Cleveland Center
08:06PM 40.1678 -79.4803 279° West 345 397 13,400 -1,800 Descending Cleveland Center
08:07PM 40.1817 -79.5989 279° West 334 384 11,700 -1,440 Descending Cleveland Center
08:08PM 40.2144 -79.7094 291° West 336 387 10,500 -840 Descending Cleveland Center
08:09PM 40.2781 -79.7822 319° Northwest 308 354 10,000 -1,200 Descending Cleveland Center
08:10PM 40.3486 -79.8653 318° Northwest 292 336 8,100 -2,100 Descending Cleveland Center
08:11PM 40.4022 -79.9272 319° Northwest 266 306 5,700 -2,040 Descending Cleveland Center
08:12PM 40.4542 -79.9892 318° Northwest 261 300 4,000 -1,140 Descending Cleveland Center
08:13PM 40.4789 -80.0519 297° West 224 258 3,400 -780 Descending Cleveland Center
08:14PM 40.4828 -80.1156 275° West 182 209 2,500 -900 Descending Cleveland Center
08:15PM 40.4850 -80.1792 273° West 159 183 1,600 -900 Descending Cleveland Center